createdAt,value
2019-02-25T00:00:42.996Z,74.77
2019-02-25T00:01:43.000Z,74.87
2019-02-25T00:02:42.979Z,74.58
2019-02-25T00:03:42.966Z,74.77
2019-02-25T00:04:42.960Z,75.24
2019-02-25T00:05:42.947Z,75.81
2019-02-25T00:06:42.947Z,75.43
2019-02-25T00:07:42.933Z,75.24
2019-02-25T00:08:42.913Z,75.24
2019-02-25T00:09:42.902Z,74.87
2019-02-25T00:10:42.893Z,74.58
2019-02-25T00:11:42.886Z,75.05
2019-02-25T00:12:42.872Z,74.96
2019-02-25T00:13:42.881Z,74.87
2019-02-25T00:14:42.849Z,74.96
2019-02-25T00:15:42.836Z,74.77
2019-02-25T00:16:42.825Z,74.96
2019-02-25T00:17:42.824Z,75.43
2019-02-25T00:18:42.810Z,75.43
2019-02-25T00:19:42.799Z,75.43
2019-02-25T00:20:42.786Z,74.77
2019-02-25T00:21:42.779Z,74.96
2019-02-25T00:22:42.763Z,74.96
2019-02-25T00:23:42.746Z,75.15
2019-02-25T00:24:42.740Z,75.24
2019-02-25T00:25:42.734Z,75.53
2019-02-25T00:26:42.719Z,75.53
2019-02-25T00:27:42.704Z,75.05
2019-02-25T00:28:42.695Z,75.05
2019-02-25T00:29:42.683Z,74.68
2019-02-25T00:30:42.689Z,75.15
2019-02-25T00:31:42.666Z,75.05
2019-02-25T00:32:42.653Z,75.02
2019-02-25T00:33:42.640Z,75.72
2019-02-25T00:34:42.631Z,74.96
2019-02-25T00:35:42.627Z,75.34
2019-02-25T00:36:42.618Z,74.87
2019-02-25T00:37:42.605Z,75.15
2019-02-25T00:38:42.583Z,75.05
2019-02-25T00:39:42.577Z,74.49
2019-02-25T00:40:42.565Z,74.87
2019-02-25T00:41:42.554Z,74.68
2019-02-25T00:42:42.542Z,74.87
2019-02-25T00:43:42.533Z,74.87
2019-02-25T00:44:42.519Z,74.68
2019-02-25T00:45:42.508Z,74.30
2019-02-25T00:46:42.520Z,74.87
2019-02-25T00:47:42.481Z,74.87
2019-02-25T00:48:42.475Z,74.96
2019-02-25T00:49:42.462Z,74.96
2019-02-25T00:50:42.457Z,74.45
2019-02-25T00:51:42.443Z,74.30
2019-02-25T00:52:42.451Z,74.35
2019-02-25T00:53:42.425Z,74.26
2019-02-25T00:54:42.412Z,74.20
2019-02-25T00:55:42.395Z,74.30
2019-02-25T00:56:42.388Z,74.68
2019-02-25T00:57:42.385Z,74.87
2019-02-25T00:58:42.382Z,74.54
2019-02-25T00:59:42.350Z,75.11
2019-02-25T01:00:42.345Z,75.21
2019-02-25T01:01:42.350Z,74.83
2019-02-25T01:02:42.324Z,75.02
2019-02-25T01:03:42.329Z,75.05
2019-02-25T01:04:42.303Z,75.11
2019-02-25T01:05:42.290Z,75.21
2019-02-25T01:06:42.280Z,75.21
2019-02-25T01:07:42.285Z,75.02
2019-02-25T01:08:42.259Z,75.68
2019-02-25T01:09:42.248Z,75.68
2019-02-25T01:10:42.232Z,75.96
2019-02-25T01:11:42.230Z,75.87
2019-02-25T01:12:42.212Z,75.78
2019-02-25T01:13:42.194Z,75.78
2019-02-25T01:14:42.199Z,75.87
2019-02-25T01:15:42.192Z,75.96
2019-02-25T01:16:42.172Z,75.96
2019-02-25T01:17:42.160Z,76.06
2019-02-25T01:18:42.146Z,76.34
2019-02-25T01:19:42.133Z,76.34
2019-02-25T01:20:42.124Z,76.63
2019-02-25T01:21:42.117Z,76.92
2019-02-25T01:22:42.104Z,76.92
2019-02-25T01:23:42.113Z,77.39
2019-02-25T01:24:42.085Z,77.11
2019-02-25T01:25:42.074Z,77.01
2019-02-25T01:26:42.053Z,77.01
2019-02-25T01:27:42.064Z,77.48
2019-02-25T01:28:42.034Z,76.82
2019-02-25T01:29:42.025Z,77.39
2019-02-25T01:30:42.016Z,77.01
2019-02-25T01:31:42.034Z,77.86
2019-02-25T01:32:41.993Z,77.77
2019-02-25T01:33:41.981Z,78.15
2019-02-25T01:34:41.962Z,77.86
2019-02-25T01:35:41.973Z,77.77
2019-02-25T01:36:41.968Z,78.15
2019-02-25T01:37:41.943Z,78.81
2019-02-25T01:38:41.936Z,78.91
2019-02-25T01:39:41.909Z,78.81
2019-02-25T01:40:41.923Z,78.43
2019-02-25T01:41:41.888Z,79.00
2019-02-25T01:42:41.886Z,77.86
2019-02-25T01:43:41.870Z,78.15
2019-02-25T01:44:41.870Z,78.62
2019-02-25T01:45:41.869Z,79.00
2019-02-25T01:46:41.864Z,78.24
2019-02-25T01:47:41.835Z,78.15
2019-02-25T01:48:41.812Z,78.34
2019-02-25T01:49:41.800Z,78.91
2019-02-25T01:50:41.794Z,79.00
2019-02-25T01:51:41.795Z,79.00
2019-02-25T01:52:41.768Z,79.57
2019-02-25T01:53:41.761Z,79.47
2019-02-25T01:54:41.747Z,79.47
2019-02-25T01:55:41.754Z,79.28
2019-02-25T01:56:41.723Z,79.76
2019-02-25T01:57:41.709Z,79.76
2019-02-25T01:58:41.703Z,79.95
2019-02-25T01:59:41.692Z,79.76
2019-02-25T02:00:41.712Z,80.04
2019-02-25T02:01:41.681Z,79.95
2019-02-25T02:02:41.658Z,79.76
2019-02-25T02:03:41.648Z,79.95
2019-02-25T02:04:41.642Z,79.66
2019-02-25T02:05:41.627Z,80.24
2019-02-25T02:06:41.617Z,79.85
2019-02-25T02:07:41.598Z,80.33
2019-02-25T02:08:41.598Z,80.52
2019-02-25T02:09:41.579Z,81.09
2019-02-25T02:10:41.568Z,80.80
2019-02-25T02:11:41.553Z,80.99
2019-02-25T02:12:41.545Z,81.37
2019-02-25T02:13:41.537Z,81.75
2019-02-25T02:14:41.534Z,81.75
2019-02-25T02:15:41.514Z,81.37
2019-02-25T02:16:41.498Z,81.18
2019-02-25T02:17:41.496Z,81.18
2019-02-25T02:18:41.479Z,81.75
2019-02-25T02:19:41.461Z,81.75
2019-02-25T02:20:41.454Z,81.47
2019-02-25T02:21:41.446Z,81.90
2019-02-25T02:22:41.424Z,82.04
2019-02-25T02:23:41.422Z,82.04
2019-02-25T02:24:41.417Z,81.75
2019-02-25T02:25:41.398Z,82.32
2019-02-25T02:26:41.389Z,82.42
2019-02-25T02:27:41.378Z,82.04
2019-02-25T02:28:41.372Z,82.23
2019-02-25T02:29:41.363Z,82.23
2019-02-25T02:30:41.339Z,81.94
2019-02-25T02:31:41.328Z,82.13
2019-02-25T02:32:41.318Z,81.94
2019-02-25T02:33:41.328Z,82.13
2019-02-25T02:34:41.296Z,82.70
2019-02-25T02:35:41.286Z,82.42
2019-02-25T02:36:41.307Z,82.32
2019-02-25T02:37:41.264Z,82.60
2019-02-25T02:38:41.252Z,83.27
2019-02-25T02:39:41.237Z,83.46
2019-02-25T02:40:41.235Z,82.89
2019-02-25T02:41:41.219Z,82.98
2019-02-25T02:42:41.206Z,82.60
2019-02-25T02:43:41.196Z,82.70
2019-02-25T02:44:41.186Z,82.04
2019-02-25T02:45:41.179Z,83.08
2019-02-25T02:46:41.163Z,82.70
2019-02-25T02:47:41.167Z,82.89
2019-02-25T02:48:41.142Z,82.13
2019-02-25T02:49:41.132Z,82.23
2019-02-25T02:50:41.116Z,82.32
2019-02-25T02:51:41.102Z,82.79
2019-02-25T02:52:41.097Z,82.51
2019-02-25T02:53:41.089Z,83.17
2019-02-25T02:54:41.069Z,83.46
2019-02-25T02:55:41.063Z,83.46
2019-02-25T02:56:41.055Z,83.46
2019-02-25T02:57:41.048Z,83.17
2019-02-25T02:58:41.028Z,83.55
2019-02-25T02:59:41.010Z,83.36
2019-02-25T03:00:41.001Z,84.12
2019-02-25T03:01:40.995Z,83.70
2019-02-25T03:02:40.972Z,84.59
2019-02-25T03:03:40.979Z,84.41
2019-02-25T03:04:40.959Z,84.31
2019-02-25T03:05:40.955Z,84.94
2019-02-25T03:06:40.932Z,85.03
2019-02-25T03:07:40.927Z,84.94
2019-02-25T03:08:40.917Z,85.03
2019-02-25T03:09:40.907Z,85.03
2019-02-25T03:10:40.890Z,85.41
2019-02-25T03:11:40.882Z,86.07
2019-02-25T03:12:40.865Z,85.50
2019-02-25T03:13:40.854Z,85.97
2019-02-25T03:14:40.849Z,86.07
2019-02-25T03:15:40.839Z,86.16
2019-02-25T03:16:40.831Z,85.78
2019-02-25T03:17:40.817Z,85.78
2019-02-25T03:18:40.808Z,85.97
2019-02-25T03:19:40.791Z,86.35
2019-02-25T03:20:40.784Z,86.16
2019-02-25T03:21:40.779Z,85.97
2019-02-25T03:22:40.755Z,86.16
2019-02-25T03:23:40.745Z,85.78
2019-02-25T03:24:40.753Z,85.97
2019-02-25T03:25:40.734Z,85.69
2019-02-25T03:26:40.702Z,86.07
2019-02-25T03:27:40.702Z,86.16
2019-02-25T03:28:40.685Z,86.35
2019-02-25T03:29:40.679Z,86.16
2019-02-25T03:30:40.667Z,86.16
2019-02-25T03:31:40.653Z,86.07
2019-02-25T03:32:40.649Z,86.74
2019-02-25T03:33:40.623Z,86.35
2019-02-25T03:34:40.634Z,85.97
2019-02-25T03:35:40.611Z,87.12
2019-02-25T03:36:40.597Z,86.93
2019-02-25T03:37:40.603Z,86.83
2019-02-25T03:38:40.567Z,85.97
2019-02-25T03:39:40.577Z,86.16
2019-02-25T03:40:40.576Z,85.88
2019-02-25T03:41:40.544Z,86.16
2019-02-25T03:42:40.527Z,85.78
2019-02-25T03:43:40.512Z,85.69
2019-02-25T03:44:40.517Z,85.31
2019-02-25T03:45:40.490Z,85.31
2019-02-25T03:46:40.496Z,84.94
2019-02-25T03:47:40.472Z,85.13
2019-02-25T03:48:40.457Z,84.94
2019-02-25T03:49:40.448Z,84.84
2019-02-25T03:50:40.436Z,84.94
2019-02-25T03:51:40.421Z,84.74
2019-02-25T03:52:40.411Z,84.65
2019-02-25T03:53:40.408Z,84.65
2019-02-25T03:54:40.394Z,84.55
2019-02-25T03:55:40.376Z,84.84
2019-02-25T03:56:40.366Z,84.94
2019-02-25T03:57:40.352Z,85.03
2019-02-25T03:58:40.338Z,85.60
2019-02-25T03:59:40.342Z,84.74
2019-02-25T04:00:40.322Z,84.27
2019-02-25T04:01:40.310Z,84.55
2019-02-25T04:02:40.296Z,84.36
2019-02-25T04:03:40.292Z,83.98
2019-02-25T04:04:40.273Z,83.61
2019-02-25T04:05:40.265Z,84.55
2019-02-25T04:06:40.261Z,84.17
2019-02-25T04:07:40.241Z,84.36
2019-02-25T04:08:40.225Z,83.89
2019-02-25T04:09:40.215Z,84.08
2019-02-25T04:10:40.205Z,83.80
2019-02-25T04:11:40.196Z,83.89
2019-02-25T04:12:40.197Z,83.89
2019-02-25T04:13:40.167Z,83.98
2019-02-25T04:14:40.165Z,83.80
2019-02-25T04:15:40.143Z,83.70
2019-02-25T04:16:40.131Z,83.98
2019-02-25T04:17:40.134Z,84.65
2019-02-25T04:18:40.116Z,83.89
2019-02-25T04:19:40.102Z,83.80
2019-02-25T04:20:40.092Z,83.98
2019-02-25T04:21:40.077Z,83.61
2019-02-25T04:22:40.071Z,83.70
2019-02-25T04:23:40.049Z,83.70
2019-02-25T04:24:40.047Z,83.61
2019-02-25T04:25:40.033Z,84.65
2019-02-25T04:26:40.022Z,84.27
2019-02-25T04:27:40.008Z,84.46
2019-02-25T04:28:39.989Z,84.74
2019-02-25T04:29:39.992Z,84.94
2019-02-25T04:30:39.975Z,84.74
2019-02-25T04:31:39.966Z,85.22
2019-02-25T04:32:39.948Z,85.13
2019-02-25T04:33:39.941Z,85.41
2019-02-25T04:34:39.929Z,84.94
2019-02-25T04:35:39.919Z,85.69
2019-02-25T04:36:39.911Z,85.78
2019-02-25T04:37:39.895Z,86.16
2019-02-25T04:38:39.890Z,86.16
2019-02-25T04:39:39.881Z,85.97
2019-02-25T04:40:39.862Z,86.35
2019-02-25T04:41:39.846Z,85.97
2019-02-25T04:42:39.836Z,86.16
2019-02-25T04:43:39.826Z,87.12
2019-02-25T04:44:39.822Z,87.12
2019-02-25T04:45:39.805Z,87.40
2019-02-25T04:46:39.803Z,87.49
2019-02-25T04:47:39.784Z,87.68
2019-02-25T04:48:39.766Z,87.77
2019-02-25T04:49:39.761Z,87.77
2019-02-25T04:50:39.741Z,87.77
2019-02-25T04:51:39.727Z,87.97
2019-02-25T04:52:39.727Z,88.54
2019-02-25T04:53:39.727Z,87.97
2019-02-25T04:54:39.697Z,87.97
2019-02-25T04:55:39.696Z,88.16
2019-02-25T04:56:39.673Z,88.16
2019-02-25T04:57:39.665Z,88.35
2019-02-25T04:58:39.652Z,88.54
2019-02-25T04:59:39.629Z,88.54
2019-02-25T05:00:39.620Z,88.63
2019-02-25T05:01:39.614Z,88.44
2019-02-25T05:02:39.605Z,88.82
2019-02-25T05:03:39.594Z,88.82
2019-02-25T05:04:39.581Z,88.54
2019-02-25T05:05:39.570Z,88.25
2019-02-25T05:06:39.576Z,88.82
2019-02-25T05:07:39.553Z,88.73
2019-02-25T05:08:39.544Z,89.01
2019-02-25T05:09:39.520Z,88.92
2019-02-25T05:10:39.509Z,88.96
2019-02-25T05:11:39.506Z,88.92
2019-02-25T05:12:39.492Z,88.63
2019-02-25T05:13:39.485Z,88.73
2019-02-25T05:14:39.457Z,88.92
2019-02-25T05:15:39.453Z,88.96
2019-02-25T05:16:40.098Z,89.25
2019-02-25T05:17:39.435Z,88.59
2019-02-25T05:18:39.418Z,88.87
2019-02-25T05:19:39.406Z,89.15
2019-02-25T05:20:39.400Z,89.44
2019-02-25T05:21:39.375Z,89.34
2019-02-25T05:22:39.365Z,88.87
2019-02-25T05:23:39.363Z,88.49
2019-02-25T05:24:39.373Z,88.82
2019-02-25T05:25:39.334Z,88.30
2019-02-25T05:26:39.327Z,88.68
2019-02-25T05:27:39.311Z,88.87
2019-02-25T05:28:39.295Z,88.49
2019-02-25T05:29:39.289Z,88.68
2019-02-25T05:30:39.326Z,88.87
2019-02-25T05:31:39.267Z,88.68
2019-02-25T05:32:39.253Z,88.68
2019-02-25T05:33:39.243Z,88.49
2019-02-25T05:34:39.228Z,89.82
2019-02-25T05:35:39.227Z,89.15
2019-02-25T05:36:39.211Z,89.25
2019-02-25T05:37:39.194Z,89.25
2019-02-25T05:38:39.180Z,89.15
2019-02-25T05:39:39.167Z,88.73
2019-02-25T05:40:39.164Z,88.40
2019-02-25T05:41:39.167Z,88.30
2019-02-25T05:42:39.135Z,88.68
2019-02-25T05:43:39.132Z,88.78
2019-02-25T05:44:39.119Z,88.21
2019-02-25T05:45:39.105Z,88.68
2019-02-25T05:46:39.097Z,88.78
2019-02-25T05:47:39.080Z,88.68
2019-02-25T05:48:39.066Z,88.49
2019-02-25T05:49:39.048Z,88.40
2019-02-25T05:50:39.904Z,88.87
2019-02-25T05:51:39.028Z,89.63
2019-02-25T05:52:39.021Z,89.39
2019-02-25T05:53:39.005Z,89.91
2019-02-25T05:54:38.992Z,90.10
2019-02-25T05:55:38.988Z,90.48
2019-02-25T05:56:38.974Z,90.86
2019-02-25T05:57:38.964Z,91.33
2019-02-25T05:58:38.961Z,91.52
2019-02-25T05:59:38.929Z,93.51
2019-02-25T06:00:38.917Z,94.46
2019-02-25T06:01:38.947Z,95.26
2019-02-25T06:02:38.897Z,93.84
2019-02-25T06:03:38.880Z,93.56
2019-02-25T06:04:38.883Z,92.04
2019-02-25T06:05:38.868Z,91.95
2019-02-25T06:06:38.853Z,91.09
2019-02-25T06:07:38.845Z,89.96
2019-02-25T06:08:38.844Z,88.92
2019-02-25T06:09:38.827Z,88.54
2019-02-25T06:10:38.808Z,89.01
2019-02-25T06:11:38.793Z,88.44
2019-02-25T06:12:38.809Z,88.73
2019-02-25T06:13:38.763Z,89.86
2019-02-25T06:14:38.754Z,89.58
2019-02-25T06:15:38.782Z,89.58
2019-02-25T06:16:38.787Z,89.82
2019-02-25T06:17:38.723Z,89.53
2019-02-25T06:18:38.709Z,89.72
2019-02-25T06:19:38.716Z,89.72
2019-02-25T06:20:38.689Z,89.53
2019-02-25T06:21:38.681Z,89.82
2019-02-25T06:22:38.676Z,90.39
2019-02-25T06:23:38.668Z,90.48
2019-02-25T06:24:38.652Z,90.39
2019-02-25T06:25:38.648Z,91.05
2019-02-25T06:26:38.811Z,91.00
2019-02-25T06:27:38.617Z,90.43
2019-02-25T06:28:38.597Z,90.91
2019-02-25T06:29:38.589Z,90.24
2019-02-25T06:30:38.572Z,90.15
2019-02-25T06:31:38.559Z,89.67
2019-02-25T06:32:38.563Z,90.15
2019-02-25T06:33:38.540Z,89.96
2019-02-25T06:34:38.522Z,89.77
2019-02-25T06:35:38.523Z,89.96
2019-02-25T06:36:38.498Z,90.62
2019-02-25T06:37:38.488Z,89.58
2019-02-25T06:38:38.488Z,89.77
2019-02-25T06:39:38.463Z,89.58
2019-02-25T06:40:38.472Z,89.58
2019-02-25T06:41:38.449Z,90.15
2019-02-25T06:42:38.432Z,89.96
2019-02-25T06:43:38.418Z,90.53
2019-02-25T06:44:38.418Z,89.86
2019-02-25T06:45:38.415Z,89.29
2019-02-25T06:46:38.392Z,89.48
2019-02-25T06:47:38.373Z,89.48
2019-02-25T06:48:38.370Z,89.96
2019-02-25T06:49:38.409Z,89.48
2019-02-25T06:50:38.339Z,89.96
2019-02-25T06:51:38.323Z,89.77
2019-02-25T06:52:38.345Z,89.77
2019-02-25T06:53:38.308Z,90.43
2019-02-25T06:54:38.287Z,90.05
2019-02-25T06:55:38.336Z,90.43
2019-02-25T06:56:38.262Z,90.53
2019-02-25T06:57:38.248Z,90.05
2019-02-25T06:58:38.243Z,90.34
2019-02-25T06:59:38.238Z,89.39
2019-02-25T07:00:38.230Z,89.86
2019-02-25T07:01:38.466Z,89.48
2019-02-25T07:02:38.492Z,89.29
2019-02-25T07:03:38.178Z,88.82
2019-02-25T07:04:38.174Z,88.30
2019-02-25T07:05:38.175Z,88.25
2019-02-25T07:06:38.159Z,88.06
2019-02-25T07:07:38.138Z,87.77
2019-02-25T07:08:38.125Z,88.16
2019-02-25T07:09:38.974Z,87.59
2019-02-25T07:10:38.109Z,87.77
2019-02-25T07:11:38.089Z,87.59
2019-02-25T07:12:38.076Z,87.30
2019-02-25T07:13:38.071Z,87.40
2019-02-25T07:14:38.058Z,87.77
2019-02-25T07:15:38.045Z,87.87
2019-02-25T07:16:38.056Z,87.59
2019-02-25T07:17:38.030Z,87.40
2019-02-25T07:18:38.027Z,87.40
2019-02-25T07:19:38.001Z,87.59
2019-02-25T07:20:37.989Z,87.59
2019-02-25T07:21:37.990Z,87.59
2019-02-25T07:22:37.972Z,87.68
2019-02-25T07:23:37.958Z,87.30
2019-02-25T07:24:37.961Z,87.12
2019-02-25T07:25:37.940Z,86.83
2019-02-25T07:26:37.921Z,87.12
2019-02-25T07:27:37.909Z,87.12
2019-02-25T07:28:37.892Z,87.16
2019-02-25T07:29:37.895Z,86.30
2019-02-25T07:30:37.872Z,86.02
2019-02-25T07:31:37.863Z,84.88
2019-02-25T07:32:39.443Z,84.31
2019-02-25T07:33:37.846Z,84.12
2019-02-25T07:34:37.823Z,84.50
2019-02-25T07:35:37.812Z,83.94
2019-02-25T07:36:37.805Z,83.55
2019-02-25T07:37:37.795Z,83.50
2019-02-25T07:38:39.773Z,82.93
2019-02-25T07:39:37.767Z,81.70
2019-02-25T07:40:37.754Z,81.88
2019-02-25T07:41:38.285Z,81.98
2019-02-25T07:42:37.728Z,81.41
2019-02-25T07:43:37.728Z,81.04
2019-02-25T07:44:37.719Z,80.84
2019-02-25T07:45:37.706Z,80.56
2019-02-25T07:46:37.694Z,80.27
2019-02-25T07:47:37.683Z,79.99
2019-02-25T07:48:37.673Z,79.84
2019-02-25T07:49:37.663Z,80.03
2019-02-25T07:50:46.775Z,79.46
2019-02-25T07:51:37.646Z,79.27
2019-02-25T07:52:37.631Z,78.89
2019-02-25T07:53:37.615Z,78.80
2019-02-25T07:54:37.606Z,78.23
2019-02-25T07:55:37.608Z,78.03
2019-02-25T07:56:37.588Z,77.66
2019-02-25T07:57:37.583Z,77.37
2019-02-25T07:58:37.575Z,77.09
2019-02-25T07:59:37.556Z,77.28
2019-02-25T08:00:37.542Z,77.37
2019-02-25T08:01:37.528Z,76.99
2019-02-25T08:02:37.516Z,76.80
2019-02-25T08:03:37.515Z,76.90
2019-02-25T08:04:37.503Z,76.65
2019-02-25T08:05:37.495Z,75.79
2019-02-25T08:06:37.499Z,75.79
2019-02-25T08:07:37.490Z,75.79
2019-02-25T08:08:37.467Z,75.99
2019-02-25T08:09:37.449Z,76.18
2019-02-25T08:10:37.443Z,75.70
2019-02-25T08:11:37.424Z,75.51
2019-02-25T08:12:37.412Z,74.85
2019-02-25T08:13:37.411Z,74.75
2019-02-25T08:14:37.398Z,74.37
2019-02-25T08:15:37.398Z,73.99
2019-02-25T08:16:37.383Z,74.12
2019-02-25T08:17:37.373Z,73.42
2019-02-25T08:18:37.362Z,73.27
2019-02-25T08:19:37.364Z,72.32
2019-02-25T08:20:37.339Z,71.43
2019-02-25T08:21:37.324Z,71.75
2019-02-25T08:22:37.321Z,70.70
2019-02-25T08:23:37.311Z,70.79
2019-02-25T08:24:37.303Z,70.04
2019-02-25T08:25:37.296Z,69.75
2019-02-25T08:26:37.279Z,69.46
2019-02-25T08:27:37.273Z,69.46
2019-02-25T08:28:37.268Z,69.46
2019-02-25T08:29:37.253Z,69.09
2019-02-25T08:30:37.245Z,68.80
2019-02-25T08:31:37.240Z,68.80
2019-02-25T08:32:37.221Z,68.80
2019-02-25T08:33:37.219Z,68.42
2019-02-25T08:34:37.210Z,68.23
2019-02-25T08:35:37.196Z,68.33
2019-02-25T08:36:37.635Z,68.33
2019-02-25T08:37:37.192Z,68.13
2019-02-25T08:38:37.165Z,68.23
2019-02-25T08:39:37.161Z,68.13
2019-02-25T08:40:37.165Z,68.13
2019-02-25T08:41:37.136Z,68.13
2019-02-25T08:42:37.135Z,67.85
2019-02-25T08:43:37.109Z,67.47
2019-02-25T08:44:37.108Z,66.42
2019-02-25T08:45:37.125Z,66.24
2019-02-25T08:46:37.089Z,65.67
2019-02-25T08:47:37.078Z,65.38
2019-02-25T08:48:37.071Z,65.19
2019-02-25T08:49:37.061Z,64.90
2019-02-25T08:50:37.051Z,64.62
2019-02-25T08:51:37.039Z,65.09
2019-02-25T08:52:37.030Z,64.90
2019-02-25T08:53:37.024Z,65.32
2019-02-25T08:54:37.008Z,65.13
2019-02-25T08:55:37.006Z,65.51
2019-02-25T08:56:37.000Z,65.89
2019-02-25T08:57:36.984Z,65.51
2019-02-25T08:58:37.021Z,65.60
2019-02-25T08:59:36.961Z,65.03
2019-02-25T09:00:36.958Z,64.75
2019-02-25T09:01:36.965Z,64.37
2019-02-25T09:02:36.936Z,63.99
2019-02-25T09:03:36.924Z,62.85
2019-02-25T09:04:36.916Z,63.23
2019-02-25T09:05:36.911Z,63.89
2019-02-25T09:06:36.904Z,63.32
2019-02-25T09:07:36.892Z,63.32
2019-02-25T09:08:36.884Z,63.04
2019-02-25T09:09:36.875Z,63.04
2019-02-25T09:10:36.864Z,62.85
2019-02-25T09:11:36.849Z,62.88
2019-02-25T09:12:36.846Z,62.30
2019-02-25T09:13:36.840Z,62.30
2019-02-25T09:14:36.827Z,61.45
2019-02-25T09:15:36.817Z,60.41
2019-02-25T09:16:36.807Z,60.02
2019-02-25T09:17:36.795Z,59.64
2019-02-25T09:18:36.805Z,58.88
2019-02-25T09:19:36.781Z,58.31
2019-02-25T09:20:36.774Z,58.22
2019-02-25T09:21:36.764Z,57.84
2019-02-25T09:22:36.756Z,57.93
2019-02-25T09:23:36.755Z,58.12
2019-02-25T09:24:36.736Z,57.26
2019-02-25T09:25:36.720Z,57.17
2019-02-25T09:26:36.718Z,57.29
2019-02-25T09:27:36.708Z,57.29
2019-02-25T09:28:36.697Z,56.63
2019-02-25T09:29:36.690Z,56.44
2019-02-25T09:30:36.685Z,56.44
2019-02-25T09:31:36.682Z,56.05
2019-02-25T09:32:36.667Z,55.01
2019-02-25T09:33:36.660Z,55.01
2019-02-25T09:34:36.642Z,54.25
2019-02-25T09:35:36.640Z,54.35
2019-02-25T09:36:36.632Z,54.06
2019-02-25T09:37:37.324Z,54.15
2019-02-25T09:38:36.628Z,54.08
2019-02-25T09:39:36.604Z,54.35
2019-02-25T09:40:36.597Z,52.84
2019-02-25T09:41:36.591Z,53.13
2019-02-25T09:42:36.596Z,53.04
2019-02-25T09:43:36.574Z,53.04
2019-02-25T09:44:38.031Z,53.04
2019-02-25T09:45:36.555Z,53.23
2019-02-25T09:46:36.551Z,53.52
2019-02-25T09:47:36.545Z,53.04
2019-02-25T09:48:36.528Z,52.94
2019-02-25T09:49:36.523Z,52.37
2019-02-25T09:50:36.529Z,51.89
2019-02-25T09:51:36.506Z,50.56
2019-02-25T09:52:36.521Z,51.51
2019-02-25T09:53:36.490Z,50.94
2019-02-25T09:54:36.482Z,50.49
2019-02-25T09:55:36.470Z,50.40
2019-02-25T09:56:37.372Z,50.01
2019-02-25T09:57:36.452Z,49.73
2019-02-25T09:58:36.439Z,50.21
2019-02-25T09:59:36.450Z,50.68
2019-02-25T10:00:36.435Z,49.82
2019-02-25T10:01:36.426Z,50.59
2019-02-25T10:02:36.405Z,50.01
2019-02-25T10:03:36.417Z,49.92
2019-02-25T10:04:36.397Z,50.01
2019-02-25T10:05:36.394Z,49.95
2019-02-25T10:06:36.378Z,49.85
2019-02-25T10:07:36.370Z,49.28
2019-02-25T10:08:36.379Z,48.71
2019-02-25T10:09:36.352Z,49.28
2019-02-25T10:10:36.341Z,48.80
2019-02-25T10:11:36.370Z,48.13
2019-02-25T10:12:36.343Z,48.32
2019-02-25T10:13:36.332Z,48.52
2019-02-25T10:14:36.319Z,47.85
2019-02-25T10:15:36.320Z,47.75
2019-02-25T10:16:36.317Z,47.85
2019-02-25T10:17:36.306Z,47.56
2019-02-25T10:18:36.288Z,47.75
2019-02-25T10:19:36.274Z,47.66
2019-02-25T10:20:36.287Z,48.13
2019-02-25T10:21:36.273Z,47.94
2019-02-25T10:22:36.253Z,47.28
2019-02-25T10:23:36.246Z,46.89
2019-02-25T10:24:36.243Z,46.42
2019-02-25T10:25:36.231Z,46.61
2019-02-25T10:26:36.234Z,46.61
2019-02-25T10:27:36.233Z,46.51
2019-02-25T10:28:36.218Z,46.61
2019-02-25T10:29:36.211Z,45.78
2019-02-25T10:30:36.195Z,45.97
2019-02-25T10:31:38.096Z,46.44
2019-02-25T10:32:36.177Z,46.63
2019-02-25T10:33:36.172Z,45.58
2019-02-25T10:34:36.177Z,45.20
2019-02-25T10:35:36.157Z,45.10
2019-02-25T10:36:36.153Z,44.73
2019-02-25T10:37:36.909Z,44.92
2019-02-25T10:38:37.582Z,44.73
2019-02-25T10:39:36.130Z,43.96
2019-02-25T10:40:36.138Z,43.87
2019-02-25T10:41:36.116Z,43.03
2019-02-25T10:42:37.698Z,42.65
2019-02-25T10:43:36.580Z,42.74
2019-02-25T10:44:36.524Z,42.84
2019-02-25T10:45:37.201Z,42.65
2019-02-25T10:46:36.077Z,42.93
2019-02-25T10:47:36.073Z,42.93
2019-02-25T10:48:36.072Z,43.32
2019-02-25T10:49:36.060Z,42.93
2019-02-25T10:50:38.418Z,43.70
2019-02-25T10:51:36.930Z,43.60
2019-02-25T10:52:36.039Z,43.79
2019-02-25T10:53:36.029Z,43.70
2019-02-25T10:54:36.031Z,43.98
2019-02-25T10:55:36.018Z,43.60
2019-02-25T10:56:36.015Z,43.15
2019-02-25T10:57:36.001Z,43.60
2019-02-25T10:58:36.125Z,43.72
2019-02-25T10:59:36.827Z,43.72
2019-02-25T11:00:37.808Z,44.01
2019-02-25T11:01:37.516Z,44.01
2019-02-25T11:02:44.026Z,44.29
2019-02-25T11:03:35.959Z,44.20
2019-02-25T11:04:35.950Z,42.67
2019-02-25T11:05:35.947Z,42.57
2019-02-25T11:06:37.579Z,42.67
2019-02-25T11:07:37.314Z,43.62
2019-02-25T11:08:37.370Z,44.29
2019-02-25T11:09:35.913Z,44.20
2019-02-25T11:10:35.910Z,43.91
2019-02-25T11:11:35.906Z,43.91
2019-02-25T11:12:35.903Z,44.29
2019-02-25T11:13:36.700Z,44.58
2019-02-25T11:14:38.323Z,44.87
2019-02-25T11:15:37.448Z,44.38
2019-02-25T11:16:35.873Z,44.51
2019-02-25T11:17:35.861Z,44.70
2019-02-25T11:18:35.860Z,44.70
2019-02-25T11:19:35.855Z,44.70
2019-02-25T11:20:37.658Z,45.17
2019-02-25T11:21:37.520Z,45.08
2019-02-25T11:22:37.620Z,44.98
2019-02-25T11:23:35.832Z,44.41
2019-02-25T11:24:35.847Z,44.22
2019-02-25T11:25:35.819Z,44.12
2019-02-25T11:26:35.814Z,44.41
2019-02-25T11:27:37.403Z,44.24
2019-02-25T11:28:38.435Z,44.60
2019-02-25T11:29:37.854Z,44.62
2019-02-25T11:30:35.781Z,44.53
2019-02-25T11:31:35.780Z,44.34
2019-02-25T11:32:35.766Z,44.53
2019-02-25T11:33:35.774Z,44.62
2019-02-25T11:34:37.576Z,44.15
2019-02-25T11:35:36.711Z,44.05
2019-02-25T11:36:35.747Z,44.05
2019-02-25T11:37:35.745Z,44.05
2019-02-25T11:38:37.436Z,43.95
2019-02-25T11:39:37.245Z,43.66
2019-02-25T11:40:36.545Z,43.86
2019-02-25T11:41:37.107Z,43.29
2019-02-25T11:42:35.708Z,43.76
2019-02-25T11:43:35.708Z,43.19
2019-02-25T11:44:35.700Z,42.71
2019-02-25T11:45:36.451Z,42.71
2019-02-25T11:46:35.687Z,42.61
2019-02-25T11:47:35.695Z,42.81
2019-02-25T11:48:35.676Z,42.52
2019-02-25T11:49:35.667Z,42.43
2019-02-25T11:50:35.660Z,42.61
2019-02-25T11:51:35.670Z,43.02
2019-02-25T11:52:35.667Z,43.19
2019-02-25T11:53:35.645Z,43.59
2019-02-25T11:54:35.636Z,43.79
2019-02-25T11:55:35.633Z,43.02
2019-02-25T11:56:35.633Z,42.93
2019-02-25T11:57:35.626Z,42.83
2019-02-25T11:58:35.617Z,43.02
2019-02-25T11:59:35.614Z,42.35
2019-02-25T12:00:35.605Z,43.21
2019-02-25T12:01:35.599Z,42.73
2019-02-25T12:02:35.597Z,42.35
2019-02-25T12:03:35.593Z,42.35
2019-02-25T12:04:35.582Z,42.93
2019-02-25T12:05:35.581Z,42.35
2019-02-25T12:06:35.573Z,42.64
2019-02-25T12:07:35.563Z,42.54
2019-02-25T12:08:35.603Z,42.35
2019-02-25T12:09:35.555Z,42.93
2019-02-25T12:10:35.546Z,42.73
2019-02-25T12:11:35.544Z,43.12
2019-02-25T12:12:35.550Z,43.43
2019-02-25T12:13:35.543Z,43.71
2019-02-25T12:14:35.552Z,43.43
2019-02-25T12:15:35.540Z,43.04
2019-02-25T12:16:35.515Z,42.76
2019-02-25T12:17:35.518Z,43.04
2019-02-25T12:18:35.510Z,43.04
2019-02-25T12:19:35.508Z,42.94
2019-02-25T12:20:35.507Z,43.23
2019-02-25T12:21:35.485Z,43.71
2019-02-25T12:22:35.494Z,43.04
2019-02-25T12:23:35.488Z,43.04
2019-02-25T12:24:35.473Z,43.14
2019-02-25T12:25:35.470Z,42.56
2019-02-25T12:26:35.473Z,42.76
2019-02-25T12:27:35.454Z,42.56
2019-02-25T12:28:35.459Z,42.87
2019-02-25T12:29:35.506Z,42.56
2019-02-25T12:30:35.460Z,42.40
2019-02-25T12:31:35.424Z,42.68
2019-02-25T12:32:35.432Z,42.30
2019-02-25T12:33:35.440Z,42.49
2019-02-25T12:34:35.420Z,42.49
2019-02-25T12:35:35.430Z,42.77
2019-02-25T12:36:35.404Z,42.30
2019-02-25T12:37:35.404Z,42.87
2019-02-25T12:38:35.400Z,42.77
2019-02-25T12:39:35.390Z,42.68
2019-02-25T12:40:35.384Z,42.87
2019-02-25T12:41:35.393Z,42.97
2019-02-25T12:42:35.378Z,42.77
2019-02-25T12:43:35.389Z,42.68
2019-02-25T12:44:35.381Z,42.77
2019-02-25T12:45:35.373Z,42.77
2019-02-25T12:46:35.349Z,43.06
2019-02-25T12:47:35.354Z,42.87
2019-02-25T12:48:35.346Z,42.97
2019-02-25T12:49:35.351Z,42.97
2019-02-25T12:50:35.332Z,42.58
2019-02-25T12:51:35.338Z,42.49
2019-02-25T12:52:35.320Z,42.51